Kezdőlap
METAR-TAF:

METAR-TAF

Repülőterek :

Dzsingisz Kán nemzetközi repülőtér

Ulánbátor, Mongólia

földrajzi szélesség: 47-55N, földrajzi hosszúság: 106-52E, magasság: 1306 m

Jelenlegi meteorológiai megfigyelések

A jelentés 48 perccel ezelõtt készült, 01:00 UTC
Különbözõ irányokból fújó szél 4 kt
Hőmérséklet 8°C
Páratartalom 87%
Légköri nyomás 1020 hPa
Látótávolság: 3200 m
Kevés felhő 3000 lábon
Párásság,

METAR: ZMUB 230100Z VRB02MPS 5000 3200SE BR FEW030 08/06 Q1020 NOSIG

Idő: 09:48 (01:48 UTC)

Előrejelzés

A jelentés 3 órával és 3 perccel ezelõtt készült, 22:45 UTC
Az előrejelzés 23-én 00 óra UTC és 24-én 06 óra UTC között érvényes
Különbözõ irányokból fújó szél 4 kt
Látótávolság: 6000 m
Szórványos felhőzet 3300 lábon
23-én 02 óra UTC és 23-én 04 óra UTC között fokozatosan kialakuló
Látótávolság 10 km, vagy több

TAF: ZMUB 222245Z 2300/2406 VRB02MPS 6000 SCT033 TX21/2307Z TN07/2321Z BECMG 2302/2304 9999 NSW

Meteorológiai megfigyelések és előrejelzések több, mint 4000 repülőtéren (METAR és TAF jelentéseket).

A térképen piros és sárga pontok jelzik az elérhető meteorológiai állomásokat.

Mozgassa az egeret a pont fölött, hogy megjelenjen az állomás neve.

Azután kattintson az időjárási megfigyelések és előrejelzések megtekintéséhez.

A térkép megváltoztatása: kattintson a fekete keresztel jelölt zöld gombra ráközelítéshez, a vonallal jelölt zöld gombra távolításhoz, vagy a zöld nyilakra a szomszédos térképek eléréséhez.


METAR-TAF: